Time;durP1;ratioP1;P1;durP2;ratioP2;P2;SDS_P1;SDS_P2;PMS_P1;PMS_P2;Temp;Humidity;BMP_temperature;BMP_pressure;BME280_temperature;BME280_humidity;BME280_pressure;Samples;Min_cycle;Max_cycle;Signal;HPM_P1;HPM_P2
2023/10/11 00:01:32;;;;;;;11.75;5.65;;;;;;;17.69;100.00;101005.78;6180428;28;20237;-74
2023/10/11 00:04:53;;;;;;;5.05;4.60;;;;;;;17.68;100.00;101012.28;6201372;28;20520;-73
2023/10/11 00:08:16;;;;;;;6.00;4.57;;;;;;;17.63;100.00;101011.97;6204140;28;20321;-74
2023/10/11 00:11:38;;;;;;;7.70;5.10;;;;;;;17.68;100.00;101009.56;6205289;28;20256;-74
2023/10/11 00:14:59;;;;;;;5.10;4.03;;;;;;;17.67;100.00;101012.47;6208660;28;20663;-73
2023/10/11 00:18:22;;;;;;;7.68;4.22;;;;;;;17.61;100.00;100994.94;6207426;28;20236;-74
2023/10/11 00:21:43;;;;;;;7.38;4.20;;;;;;;17.60;100.00;100993.25;6187676;28;20308;-74
2023/10/11 00:25:05;;;;;;;5.93;5.15;;;;;;;17.60;100.00;101003.31;6200211;28;20241;-74
2023/10/11 00:28:31;;;;;;;6.25;4.00;;;;;;;17.67;100.00;100998.84;6185474;28;20262;-73
2023/10/11 00:31:52;;;;;;;7.38;4.43;;;;;;;17.62;100.00;100982.16;6201009;28;20276;-74
2023/10/11 00:35:18;;;;;;;13.23;3.88;;;;;;;17.56;100.00;100984.56;6205207;28;20472;-75
2023/10/11 00:38:48;;;;;;;6.20;5.13;;;;;;;17.55;100.00;100974.69;6208717;28;20228;-73
2023/10/11 00:42:10;;;;;;;11.52;5.05;;;;;;;17.49;100.00;100980.88;6199650;28;20229;-73
2023/10/11 00:45:36;;;;;;;7.57;4.82;;;;;;;17.49;100.00;100978.13;6205789;28;20680;-74
2023/10/11 00:49:05;;;;;;;5.28;3.97;;;;;;;17.51;100.00;100986.13;6200465;28;20265;-74
2023/10/11 00:52:26;;;;;;;5.65;4.82;;;;;;;17.48;100.00;100978.28;6190669;28;20615;-74
2023/10/11 00:55:47;;;;;;;7.95;5.32;;;;;;;17.44;100.00;100983.22;6197072;28;20252;-74
2023/10/11 00:59:10;;;;;;;5.70;4.47;;;;;;;17.50;100.00;100979.81;6194560;28;20233;-73
2023/10/11 01:02:35;;;;;;;6.70;4.40;;;;;;;17.45;100.00;100981.34;6196636;28;20229;-73
2023/10/11 01:05:58;;;;;;;10.38;4.80;;;;;;;17.46;100.00;100978.44;6200874;28;20260;-73
2023/10/11 01:09:26;;;;;;;12.03;5.17;;;;;;;17.37;100.00;100971.34;6203621;28;20258;-73
2023/10/11 01:12:47;;;;;;;7.40;4.83;;;;;;;17.35;100.00;100970.69;6201133;28;20676;-75
2023/10/11 01:16:10;;;;;;;5.95;3.95;;;;;;;17.33;100.00;100963.72;6201313;28;20237;-73
2023/10/11 01:19:32;;;;;;;4.93;4.43;;;;;;;17.33;100.00;100956.41;6205021;28;20233;-74
2023/10/11 01:22:54;;;;;;;6.17;4.97;;;;;;;17.24;100.00;100957.44;6181250;28;20286;-73
2023/10/11 01:26:15;;;;;;;7.03;5.03;;;;;;;17.21;100.00;100951.50;6193149;28;20225;-73
2023/10/11 01:29:37;;;;;;;5.80;4.27;;;;;;;17.14;100.00;100950.50;6180292;28;21135;-73
2023/10/11 01:32:58;;;;;;;6.40;4.37;;;;;;;17.20;100.00;100950.66;6184170;28;20685;-72
2023/10/11 01:36:21;;;;;;;4.53;3.90;;;;;;;17.12;100.00;100947.97;6180852;28;20221;-73
2023/10/11 01:39:43;;;;;;;8.30;4.53;;;;;;;17.18;100.00;100951.84;6190976;28;20233;-73
2023/10/11 01:43:04;;;;;;;4.53;4.03;;;;;;;17.14;100.00;100954.09;6202506;28;20260;-73
2023/10/11 01:46:27;;;;;;;6.33;4.53;;;;;;;17.12;100.00;100955.28;6203414;28;20241;-74
2023/10/11 01:49:52;;;;;;;6.30;4.93;;;;;;;17.08;100.00;100962.13;6194219;28;20232;-73
2023/10/11 01:53:14;;;;;;;5.85;4.30;;;;;;;17.05;100.00;100962.44;6219826;28;20233;-72
2023/10/11 01:56:37;;;;;;;5.20;4.32;;;;;;;17.01;100.00;100950.22;6207990;28;20525;-72
2023/10/11 01:59:59;;;;;;;6.50;4.70;;;;;;;16.94;100.00;100941.06;6195748;28;20324;-73
2023/10/11 02:03:20;;;;;;;8.38;4.60;;;;;;;16.89;100.00;100936.13;6181644;28;20229;-73
2023/10/11 02:06:41;;;;;;;8.95;5.28;;;;;;;16.89;100.00;100936.13;6201754;28;22294;-71
2023/10/11 02:10:03;;;;;;;7.53;5.45;;;;;;;16.90;100.00;100921.47;6204176;28;20932;-72
2023/10/11 02:13:25;;;;;;;8.02;4.65;;;;;;;16.86;100.00;100916.56;6194085;28;21249;-72
2023/10/11 02:16:46;;;;;;;14.60;5.67;;;;;;;16.79;100.00;100921.88;6181157;28;20229;-72
2023/10/11 02:20:13;;;;;;;8.70;4.85;;;;;;;16.79;100.00;100924.59;6190912;28;20254;-73
2023/10/11 02:23:37;;;;;;;15.13;5.40;;;;;;;16.78;100.00;100928.34;6197980;28;20248;-72
2023/10/11 02:26:58;;;;;;;7.53;5.00;;;;;;;16.76;100.00;100930.38;6208639;28;20242;-73
2023/10/11 02:30:24;;;;;;;6.83;4.23;;;;;;;16.78;100.00;100912.00;6168788;28;20332;-73
2023/10/11 02:33:45;;;;;;;5.73;5.13;;;;;;;16.71;100.00;100924.59;6177772;28;20616;-73
2023/10/11 02:37:10;;;;;;;6.70;4.60;;;;;;;16.68;100.00;100916.78;6175585;28;20233;-73
2023/10/11 02:40:37;;;;;;;7.50;4.90;;;;;;;16.65;100.00;100909.81;6179013;28;20275;-72
2023/10/11 02:43:58;;;;;;;7.13;4.60;;;;;;;16.71;100.00;100900.09;6175140;28;20547;-71
2023/10/11 02:47:24;;;;;;;6.70;4.53;;;;;;;16.62;100.00;100901.16;6201623;28;20237;-73
2023/10/11 02:50:46;;;;;;;10.32;5.25;;;;;;;16.64;100.00;100886.38;6211431;28;20233;-73
2023/10/11 02:54:14;;;;;;;7.70;5.32;;;;;;;16.61;100.00;100888.56;6199402;28;20237;-72
2023/10/11 02:57:35;;;;;;;12.70;6.20;;;;;;;16.60;100.00;100895.03;6201674;28;20535;-73
2023/10/11 03:00:59;;;;;;;6.80;5.22;;;;;;;16.60;100.00;100897.75;6174731;28;20537;-72
2023/10/11 03:04:27;;;;;;;9.43;5.80;;;;;;;16.62;100.00;100898.44;6178293;28;20241;-73
2023/10/11 03:07:49;;;;;;;11.55;4.93;;;;;;;16.60;100.00;100900.50;6207335;28;20517;-72
2023/10/11 03:11:15;;;;;;;8.93;6.65;;;;;;;16.61;100.00;100896.72;6211864;28;20229;-73
2023/10/11 03:14:41;;;;;;;8.07;5.33;;;;;;;16.57;100.00;100898.09;6192378;28;20230;-74
2023/10/11 03:18:06;;;;;;;9.15;5.95;;;;;;;16.62;100.00;100891.13;6175296;28;20714;-72
2023/10/11 03:21:33;;;;;;;8.27;5.77;;;;;;;16.59;100.00;100888.75;6175137;28;20230;-73
2023/10/11 03:24:59;;;;;;;10.73;5.40;;;;;;;16.54;100.00;100888.41;6172226;28;20233;-72
2023/10/11 03:28:26;;;;;;;9.52;5.32;;;;;;;16.54;100.00;100885.69;6197084;28;20252;-71
2023/10/11 03:31:47;;;;;;;7.50;5.20;;;;;;;16.52;100.00;100876.03;6195252;28;21988;-73
2023/10/11 03:35:09;;;;;;;9.70;5.90;;;;;;;16.46;100.00;100865.78;6173567;28;20812;-72
2023/10/11 03:38:34;;;;;;;8.57;5.80;;;;;;;16.47;100.00;100862.03;6197943;28;20280;-72
2023/10/11 03:42:07;;;;;;;6.43;5.23;;;;;;;16.47;100.00;100860.19;6198374;28;20237;-71
2023/10/11 03:45:28;;;;;;;5.80;4.63;;;;;;;16.47;100.00;100862.91;6196198;28;20221;-72
2023/10/11 03:48:53;;;;;;;6.37;4.90;;;;;;;16.44;100.00;100851.50;6178642;28;20233;-72
2023/10/11 03:52:19;;;;;;;8.07;6.67;;;;;;;16.38;100.00;100842.16;6179230;28;20626;-72
2023/10/11 03:55:46;;;;;;;9.67;5.77;;;;;;;16.37;100.00;100840.47;6178185;28;20230;-73
2023/10/11 03:59:07;;;;;;;7.13;5.40;;;;;;;16.37;100.00;100831.47;6197016;28;20249;-73
2023/10/11 04:02:28;;;;;;;11.10;5.37;;;;;;;16.34;100.00;100832.66;6204755;28;20261;-72
2023/10/11 04:05:50;;;;;;;11.57;5.77;;;;;;;16.39;100.00;100835.72;6210238;28;20229;-72
2023/10/11 04:09:22;;;;;;;7.97;5.80;;;;;;;16.35;100.00;100833.50;6195899;28;20548;-71
2023/10/11 04:12:44;;;;;;;7.43;4.60;;;;;;;16.34;100.00;100834.50;6206102;28;20549;-73
2023/10/11 04:16:07;;;;;;;10.93;6.13;;;;;;;16.34;100.00;100835.38;6206774;28;20678;-71
2023/10/11 04:19:31;;;;;;;7.77;5.17;;;;;;;16.37;100.00;100828.75;6193488;28;20228;-73
2023/10/11 04:23:10;;;;;;;9.97;6.13;;;;;;;16.32;100.00;100823.81;6200447;28;20233;-71
2023/10/11 04:26:36;;;;;;;7.40;5.00;;;;;;;16.32;100.00;100829.25;6205595;28;20562;-71
2023/10/11 04:29:57;;;;;;;5.57;4.87;;;;;;;16.31;100.00;100829.44;6198433;28;20233;-71
2023/10/11 04:33:20;;;;;;;12.97;5.10;;;;;;;16.34;100.00;100829.94;6200160;28;20229;-72
2023/10/11 04:36:42;;;;;;;10.53;5.40;;;;;;;16.31;100.00;100830.25;6186344;28;20239;-72
2023/10/11 04:40:22;;;;;;;11.33;6.10;;;;;;;16.32;100.00;100822.97;6178631;28;20246;-72
2023/10/11 04:43:50;;;;;;;6.40;5.73;;;;;;;16.36;100.00;100818.88;6199099;28;20861;-71
2023/10/11 04:47:17;;;;;;;5.50;4.97;;;;;;;16.31;100.00;100830.25;6188414;28;20232;-73
2023/10/11 04:50:44;;;;;;;8.23;5.70;;;;;;;16.31;100.00;100811.22;6202347;28;20225;-72
2023/10/11 04:54:13;;;;;;;8.47;6.67;;;;;;;16.30;100.00;100830.44;6189791;28;20776;-74
2023/10/11 04:57:40;;;;;;;9.77;5.23;;;;;;;16.29;100.00;100826.03;6208075;28;20236;-73
2023/10/11 05:01:02;;;;;;;6.27;5.10;;;;;;;16.32;100.00;100828.41;6206326;28;20237;-72
2023/10/11 05:04:27;;;;;;;6.93;5.10;;;;;;;16.33;100.00;100835.56;6185071;28;20588;-72
2023/10/11 05:08:01;;;;;;;9.93;5.33;;;;;;;16.31;100.00;100853.94;6213151;28;20229;-73
2023/10/11 05:11:36;;;;;;;13.27;6.50;;;;;;;16.30;100.00;100827.72;6201867;28;20595;-74
2023/10/11 05:15:07;;;;;;;7.63;5.73;;;;;;;16.32;100.00;100828.41;6208698;28;20327;-73
2023/10/11 05:18:29;;;;;;;7.00;5.70;;;;;;;16.27;100.00;100844.41;6201500;28;20221;-74
2023/10/11 05:21:53;;;;;;;7.53;5.43;;;;;;;16.27;100.00;100842.53;6208149;28;20229;-74
2023/10/11 05:25:37;;;;;;;7.13;5.47;;;;;;;16.22;100.00;100847.66;6182948;28;20263;-72
2023/10/11 05:29:09;;;;;;;6.33;5.73;;;;;;;16.20;100.00;100825.22;6191068;28;20589;-74
2023/10/11 05:32:32;;;;;;;7.07;6.43;;;;;;;16.20;100.00;100821.63;6196498;28;20237;-73
2023/10/11 05:36:14;;;;;;;5.50;4.93;;;;;;;16.20;100.00;100816.19;6216152;28;20229;-74
2023/10/11 05:54:11;;;;;;;7.40;6.60;;;;;;;16.13;100.00;100859.56;6210722;28;20619;-74
2023/10/11 05:57:33;;;;;;;9.27;5.20;;;;;;;16.14;100.00;100857.69;6212032;28;20785;-74
2023/10/11 06:00:54;;;;;;;8.43;5.23;;;;;;;16.16;100.00;100861.94;6209724;28;20237;-74
2023/10/11 06:04:16;;;;;;;8.47;5.43;;;;;;;16.19;100.00;100877.09;6207864;28;20343;-74
2023/10/11 06:07:37;;;;;;;12.40;6.17;;;;;;;16.19;100.00;100882.53;6206085;28;20229;-73
2023/10/11 06:10:59;;;;;;;10.80;6.87;;;;;;;16.24;100.00;100878.25;6208103;28;21136;-72
2023/10/11 06:14:22;;;;;;;8.77;6.37;;;;;;;16.24;100.00;100855.63;6214973;28;20264;-71
2023/10/11 06:17:48;;;;;;;7.57;6.20;;;;;;;16.23;100.00;100859.38;6206374;28;20236;-73
2023/10/11 06:21:18;;;;;;;8.40;5.57;;;;;;;16.30;100.00;100860.38;6210315;28;22003;-74
2023/10/11 06:24:39;;;;;;;14.30;6.50;;;;;;;16.30;100.00;100858.50;6192989;28;20237;-74
2023/10/11 06:28:13;;;;;;;8.07;6.83;;;;;;;16.34;100.00;100862.59;6209243;28;20650;-74
2023/10/11 06:31:39;;;;;;;10.47;7.13;;;;;;;16.37;100.00;100854.09;6201556;28;20710;-74
2023/10/11 06:35:00;;;;;;;12.37;6.57;;;;;;;16.41;100.00;100846.41;6208278;28;20654;-74
2023/10/11 06:38:22;;;;;;;6.07;5.27;;;;;;;16.39;100.00;100848.47;6214157;28;20524;-73
2023/10/11 06:41:50;;;;;;;7.03;6.33;;;;;;;16.39;100.00;100849.31;6172924;28;20680;-73
2023/10/11 06:45:17;;;;;;;13.23;6.93;;;;;;;16.43;100.00;100839.78;6179421;28;20286;-74
2023/10/11 06:48:39;;;;;;;10.77;6.13;;;;;;;16.44;100.00;100833.28;6203794;28;20348;-74
2023/10/11 06:52:01;;;;;;;9.13;6.20;;;;;;;16.47;100.00;100823.94;6198916;28;20297;-74
2023/10/11 06:55:25;;;;;;;6.63;5.90;;;;;;;16.50;100.00;100827.19;6194678;28;20265;-72
2023/10/11 06:58:46;;;;;;;8.23;5.77;;;;;;;16.60;100.00;100822.41;6202275;28;20237;-73
2023/10/11 07:02:17;;;;;;;6.32;4.90;;;;;;;16.66;100.00;100835.31;6209296;28;20229;-72
2023/10/11 07:05:46;;;;;;;8.20;6.07;;;;;;;16.63;100.00;100834.78;6195298;28;20859;-73
2023/10/11 07:09:19;;;;;;;6.90;5.23;;;;;;;16.61;100.00;100815.91;6188860;28;20228;-73
2023/10/11 07:12:40;;;;;;;10.03;5.03;;;;;;;16.61;100.00;100845.00;6198569;28;20232;-74
2023/10/11 07:16:08;;;;;;;10.03;6.00;;;;;;;16.61;100.00;100853.19;6201737;28;20611;-72
2023/10/11 07:19:29;;;;;;;11.63;5.80;;;;;;;16.62;100.00;100866.63;6179106;28;20233;-73
2023/10/11 07:22:51;;;;;;;10.30;6.30;;;;;;;16.66;100.00;100850.78;6195740;28;20647;-73
2023/10/11 07:26:47;;;;;;;10.43;7.77;;;;;;;16.68;100.00;100851.47;6181634;28;20233;-74
2023/10/11 07:30:16;;;;;;;8.93;5.23;;;;;;;16.68;100.00;100852.31;6206569;28;20237;-74
2023/10/11 07:33:37;;;;;;;10.20;7.27;;;;;;;16.72;100.00;100853.66;6209187;28;20256;-74
2023/10/11 07:36:57;;;;;;;7.57;5.70;;;;;;;16.71;100.00;100859.25;6204805;28;20543;-73
2023/10/11 07:40:32;;;;;;;11.27;6.73;;;;;;;16.73;100.00;100877.13;6209628;28;20249;-73
2023/10/11 07:43:55;;;;;;;9.53;6.27;;;;;;;16.73;100.00;100854.47;6205158;28;20229;-73
2023/10/11 07:47:18;;;;;;;10.93;6.53;;;;;;;16.78;100.00;100861.13;6211024;28;20229;-73
2023/10/11 07:50:39;;;;;;;7.87;6.60;;;;;;;16.82;100.00;100858.88;6189548;28;20596;-73
2023/10/11 07:54:06;;;;;;;15.40;7.63;;;;;;;16.85;100.00;100855.81;6189341;28;20231;-73
2023/10/11 07:57:29;;;;;;;9.33;6.30;;;;;;;16.82;100.00;100875.22;6216683;28;20355;-73
2023/10/11 08:00:51;;;;;;;7.73;5.73;;;;;;;16.80;100.00;100866.38;6204686;28;20233;-72
2023/10/11 08:04:12;;;;;;;11.73;6.73;;;;;;;16.84;100.00;100862.28;6209858;28;20245;-74
2023/10/11 08:07:35;;;;;;;6.33;5.43;;;;;;;16.81;100.00;100867.22;6216136;28;20237;-73
2023/10/11 08:10:55;;;;;;;10.57;5.87;;;;;;;16.79;100.00;100872.88;6210339;28;20630;-72
2023/10/11 08:14:22;;;;;;;7.27;5.60;;;;;;;16.79;100.00;100895.47;6215977;28;20229;-74
2023/10/11 08:17:42;;;;;;;7.17;5.07;;;;;;;16.84;100.00;100873.16;6217839;28;20229;-74
2023/10/11 08:21:04;;;;;;;9.90;5.97;;;;;;;16.82;100.00;100868.91;6215116;28;20348;-72
2023/10/11 08:24:27;;;;;;;13.00;7.70;;;;;;;16.89;100.00;100862.59;6213359;28;20233;-74
2023/10/11 08:27:51;;;;;;;9.13;5.97;;;;;;;16.90;100.00;100860.75;6182775;28;20235;-73
2023/10/11 08:31:14;;;;;;;8.37;5.40;;;;;;;16.97;100.00;100853.53;6217497;28;20549;-74
2023/10/11 08:34:36;;;;;;;9.27;6.63;;;;;;;16.97;100.00;100854.38;6228017;28;20229;-74
2023/10/11 08:38:02;;;;;;;11.53;6.00;;;;;;;16.99;100.00;100837.88;6188134;28;20230;-74
2023/10/11 08:41:23;;;;;;;14.10;7.43;;;;;;;17.26;100.00;100837.38;6189513;28;20563;-74
2023/10/11 08:44:45;;;;;;;10.10;6.90;;;;;;;17.21;100.00;100831.63;6181367;28;20237;-74
2023/10/11 08:48:08;;;;;;;11.33;6.53;;;;;;;17.35;100.00;100825.38;6211134;28;20574;-73
2023/10/11 08:51:36;;;;;;;12.17;7.27;;;;;;;17.49;100.00;100821.88;6195953;28;20229;-73
2023/10/11 08:54:58;;;;;;;8.93;6.63;;;;;;;17.96;100.00;100825.22;6190321;28;20225;-72
2023/10/11 08:58:27;;;;;;;8.17;6.03;;;;;;;17.70;100.00;100843.03;6199382;28;20229;-74
2023/10/11 09:01:48;;;;;;;10.00;6.40;;;;;;;17.50;100.00;100878.13;6212681;28;20502;-75
2023/10/11 09:05:28;;;;;;;15.83;7.60;;;;;;;17.44;100.00;100852.38;6203784;28;20237;-74
2023/10/11 09:08:51;;;;;;;10.73;6.33;;;;;;;17.34;100.00;100859.09;6212307;28;20229;-74
2023/10/11 09:12:24;;;;;;;13.30;7.38;;;;;;;17.41;100.00;100849.19;6205899;28;20321;-74
2023/10/11 09:15:46;;;;;;;9.10;6.87;;;;;;;17.49;100.00;100828.22;6210006;28;20221;-74
2023/10/11 09:19:09;;;;;;;9.27;6.90;;;;;;;17.44;100.00;100829.72;6206075;28;20226;-73
2023/10/11 09:22:46;;;;;;;10.10;7.28;;;;;;;17.67;100.00;100832.50;6184815;28;20233;-73
2023/10/11 09:26:08;;;;;;;8.13;5.87;;;;;;;17.49;100.00;100824.59;6182721;28;20752;-74
2023/10/11 09:29:30;;;;;;;12.93;7.30;;;;;;;17.56;100.00;100823.69;6178632;28;20233;-73
2023/10/11 09:32:51;;;;;;;12.50;7.63;;;;;;;18.11;100.00;100819.78;6208763;28;20232;-73
2023/10/11 09:36:13;;;;;;;13.07;6.43;;;;;;;17.72;100.00;100832.78;6216326;28;20340;-72
2023/10/11 09:39:35;;;;;;;13.60;7.75;;;;;;;18.11;100.00;100833.44;6213849;28;20237;-73
2023/10/11 09:43:00;;;;;;;14.25;7.90;;;;;;;17.81;100.00;100846.19;6203033;28;20229;-74
2023/10/11 09:46:23;;;;;;;12.43;8.18;;;;;;;17.57;100.00;100857.28;6208296;28;20273;-73
2023/10/11 09:49:46;;;;;;;8.50;6.70;;;;;;;17.57;100.00;100876.34;6197680;28;20236;-72
2023/10/11 09:53:10;;;;;;;15.90;8.30;;;;;;;17.51;100.00;100877.94;6209226;28;20618;-72
2023/10/11 09:56:40;;;;;;;11.03;7.63;;;;;;;17.53;100.00;100869.56;6187670;28;20554;-74
2023/10/11 10:00:12;;;;;;;11.63;6.80;;;;;;;17.60;100.00;100856.94;6210308;28;20233;-73
2023/10/11 10:03:38;;;;;;;10.63;7.00;;;;;;;17.46;100.00;100868.56;6184314;28;20241;-74
2023/10/11 10:07:12;;;;;;;13.23;8.07;;;;;;;17.42;100.00;100872.69;6184760;28;20233;-73
2023/10/11 10:10:53;;;;;;;12.00;7.97;;;;;;;17.44;100.00;100868.75;6211884;28;20252;-72
2023/10/11 10:14:25;;;;;;;12.37;7.73;;;;;;;17.51;100.00;100869.75;6204778;28;20485;-74
2023/10/11 10:18:17;;;;;;;12.73;7.93;;;;;;;17.62;100.00;100860.31;6186379;28;20229;-73
2023/10/11 10:22:11;;;;;;;13.07;8.20;;;;;;;17.60;100.00;100865.09;6186598;28;20518;-74
2023/10/11 10:25:32;;;;;;;11.95;8.90;;;;;;;17.61;100.00;100882.31;6192079;28;20615;-73
2023/10/11 10:28:57;;;;;;;21.93;7.50;;;;;;;17.58;100.00;100886.25;6205221;28;20237;-74
2023/10/11 10:32:19;;;;;;;13.85;9.02;;;;;;;17.53;100.00;100894.97;6211413;28;20490;-74
2023/10/11 10:35:41;;;;;;;8.03;7.23;;;;;;;17.55;100.00;100897.50;6216069;28;20602;-73
2023/10/11 10:39:36;;;;;;;12.40;8.10;;;;;;;17.49;100.00;100907.25;6201338;28;20603;-74
2023/10/11 10:43:21;;;;;;;10.40;8.27;;;;;;;17.42;100.00;100899.94;6201901;28;20513;-73
2023/10/11 10:46:49;;;;;;;10.37;7.77;;;;;;;17.37;100.00;100894.19;6203372;28;20241;-73
2023/10/11 10:50:21;;;;;;;10.35;8.52;;;;;;;17.42;100.00;100895.34;6212359;28;20233;-74
2023/10/11 10:53:50;;;;;;;13.15;9.60;;;;;;;17.24;100.00;100905.66;6203470;28;20247;-73
2023/10/11 10:57:10;;;;;;;14.83;9.03;;;;;;;17.20;100.00;100903.47;6218374;28;20233;-73
2023/10/11 11:00:33;;;;;;;11.63;9.23;;;;;;;17.22;100.00;100920.50;6211505;28;20256;-74
2023/10/11 11:03:58;;;;;;;10.73;7.93;;;;;;;17.17;100.00;100901.94;6205550;28;20237;-73
2023/10/11 11:07:26;;;;;;;12.97;9.43;;;;;;;17.20;100.00;100909.78;6191230;28;20238;-73
2023/10/11 11:10:55;;;;;;;15.33;9.23;;;;;;;17.30;100.00;100904.09;6189820;28;20614;-73
2023/10/11 11:14:19;;;;;;;9.77;8.50;;;;;;;17.36;100.00;100912.41;6182823;28;20240;-74
2023/10/11 11:17:47;;;;;;;14.10;9.40;;;;;;;17.31;100.00;100909.38;6178308;28;20608;-74
2023/10/11 11:21:20;;;;;;;13.23;9.53;;;;;;;17.41;100.00;100890.94;6204908;28;20271;-74
2023/10/11 11:24:44;;;;;;;10.47;9.37;;;;;;;17.40;100.00;100888.34;6199664;28;20238;-75
2023/10/11 11:28:08;;;;;;;10.10;9.00;;;;;;;17.39;100.00;100881.22;6204410;28;20237;-73
2023/10/11 11:31:38;;;;;;;13.40;10.57;;;;;;;17.34;100.00;100875.47;6213334;28;20232;-73
2023/10/11 11:35:02;;;;;;;11.77;8.30;;;;;;;17.35;100.00;100863.53;6188226;28;20550;-73
2023/10/11 11:38:23;;;;;;;10.63;9.10;;;;;;;17.38;100.00;100868.63;6214046;28;20665;-73
2023/10/11 11:41:49;;;;;;;12.77;9.47;;;;;;;17.44;100.00;100868.75;6216683;28;20244;-74
2023/10/11 11:45:14;;;;;;;14.07;9.10;;;;;;;17.39;100.00;100860.28;6214179;28;20256;-73
2023/10/11 11:48:41;;;;;;;13.13;8.83;;;;;;;17.45;100.00;100858.69;6222159;28;20312;-72
2023/10/11 11:52:01;;;;;;;9.90;7.97;;;;;;;17.60;100.00;100843.28;6188828;28;20294;-73
2023/10/11 11:55:22;;;;;;;13.23;10.07;;;;;;;17.63;100.00;100847.53;6189271;28;20674;-73
2023/10/11 11:58:46;;;;;;;9.90;8.25;;;;;;;17.72;100.00;100830.06;6202522;28;20773;-72
2023/10/11 12:02:16;;;;;;;10.83;7.57;;;;;;;17.85;100.00;100811.22;6210533;28;20312;-73
2023/10/11 12:05:40;;;;;;;9.90;7.57;;;;;;;17.84;100.00;100818.53;6211785;28;20625;-73
2023/10/11 12:09:04;;;;;;;9.15;6.82;;;;;;;17.74;100.00;100823.41;6213135;28;20225;-72
2023/10/11 12:12:25;;;;;;;14.48;6.55;;;;;;;17.79;100.00;100825.59;6209475;28;20240;-73
2023/10/11 12:15:48;;;;;;;7.53;6.72;;;;;;;17.89;100.00;100831.63;6214956;28;20229;-73
2023/10/11 12:19:11;;;;;;;10.90;6.72;;;;;;;18.02;100.00;100808.13;6217068;28;20241;-74
2023/10/11 12:22:32;;;;;;;8.00;6.72;;;;;;;18.22;100.00;100809.28;6210014;28;20230;-72
2023/10/11 12:25:54;;;;;;;8.57;5.80;;;;;;;18.47;100.00;100822.69;6212019;28;20241;-73
2023/10/11 12:29:18;;;;;;;7.93;6.55;;;;;;;18.38;100.00;100798.19;6209395;28;20221;-73
2023/10/11 12:32:40;;;;;;;7.80;6.57;;;;;;;18.50;100.00;100798.59;6213060;28;20232;-75
2023/10/11 12:36:05;;;;;;;6.13;5.45;;;;;;;18.60;100.00;100792.84;6210471;28;20320;-74
2023/10/11 12:39:29;;;;;;;8.00;7.18;;;;;;;18.54;100.00;100799.91;6209550;28;20225;-74
2023/10/11 12:42:50;;;;;;;5.88;5.38;;;;;;;18.69;100.00;100800.72;6192890;28;20233;-73
2023/10/11 12:46:11;;;;;;;6.38;5.53;;;;;;;18.77;100.00;100797.91;6218991;28;20236;-73
2023/10/11 12:49:33;;;;;;;5.78;5.18;;;;;;;18.59;100.00;100791.97;6211188;28;20233;-74
2023/10/11 12:52:54;;;;;;;5.60;4.28;;;;;;;18.68;100.00;100801.78;6196616;28;20514;-74
2023/10/11 12:56:15;;;;;;;4.85;4.30;;;;;;;18.58;100.00;100803.09;6177088;28;20246;-74
2023/10/11 12:59:36;;;;;;;5.63;5.13;;;;;;;18.52;100.00;100801.13;6185385;28;20257;-74
2023/10/11 13:02:59;;;;;;;5.53;5.03;;;;;;;18.72;100.00;100805.81;6211380;28;20225;-73
2023/10/11 13:06:21;;;;;;;7.78;6.00;;;;;;;18.92;100.00;100815.09;6209384;28;20233;-74
2023/10/11 13:09:42;;;;;;;6.68;6.03;;;;;;;18.71;100.00;100815.03;6195469;28;20238;-74
2023/10/11 13:13:08;;;;;;;7.80;5.93;;;;;;;18.79;100.00;100806.75;6187783;28;20492;-75
2023/10/11 13:16:29;;;;;;;10.35;6.88;;;;;;;18.77;100.00;100802.53;6193490;28;20229;-75
2023/10/11 13:19:51;;;;;;;11.68;7.25;;;;;;;19.05;100.00;100801.59;6176458;28;20233;-75
2023/10/11 13:23:14;;;;;;;8.88;5.97;;;;;;;19.11;100.00;100828.16;6183239;28;20854;-74
2023/10/11 13:26:36;;;;;;;6.85;5.72;;;;;;;18.77;100.00;100822.50;6213634;28;20233;-73
2023/10/11 13:30:01;;;;;;;6.40;5.80;;;;;;;18.60;100.00;100836.53;6214718;28;20236;-74
2023/10/11 13:33:22;;;;;;;9.80;5.95;;;;;;;18.54;100.00;100819.03;6202610;28;20233;-74
2023/10/11 13:36:43;;;;;;;7.97;5.85;;;;;;;18.54;100.00;100820.91;6206863;28;20241;-74
2023/10/11 13:40:08;;;;;;;12.23;7.53;;;;;;;18.44;100.00;100812.97;6212465;28;20316;-74
2023/10/11 13:43:29;;;;;;;10.70;6.70;;;;;;;18.34;100.00;100804.19;6211044;28;20225;-73
2023/10/11 13:46:52;;;;;;;6.28;5.47;;;;;;;18.31;100.00;100808.16;6203597;28;20233;-74
2023/10/11 13:50:20;;;;;;;6.13;5.07;;;;;;;18.31;100.00;100799.13;6215061;28;20610;-74
2023/10/11 13:53:41;;;;;;;6.22;5.63;;;;;;;18.60;100.00;100795.56;6208634;28;20252;-76
2023/10/11 13:57:10;;;;;;;6.43;5.25;;;;;;;18.97;100.00;100785.31;6208765;28;20240;-75
2023/10/11 14:04:13;;;;;;;7.07;5.75;;;;;;;18.49;100.00;100799.63;6214766;28;20254;-74
2023/10/11 14:07:36;;;;;;;5.95;5.35;;;;;;;18.42;100.00;100793.19;6192888;28;20233;-74
2023/10/11 14:10:59;;;;;;;9.93;6.43;;;;;;;18.43;100.00;100791.31;6215680;28;20879;-73
2023/10/11 14:14:22;;;;;;;6.88;5.72;;;;;;;18.37;100.00;100776.53;6199208;28;20248;-74
2023/10/11 14:17:44;;;;;;;8.13;5.20;;;;;;;18.41;100.00;100760.63;6218997;28;20240;-75
2023/10/11 14:21:11;;;;;;;6.78;5.72;;;;;;;18.46;100.00;100772.69;6207797;28;20241;-74
2023/10/11 14:24:32;;;;;;;8.45;6.78;;;;;;;18.50;100.00;100756.78;6210447;28;20221;-74
2023/10/11 14:27:53;;;;;;;6.55;5.95;;;;;;;18.49;100.00;100758.66;6185477;28;20321;-76
2023/10/11 14:31:18;;;;;;;9.80;5.43;;;;;;;18.44;100.00;100733.81;6198962;28;20611;-74
2023/10/11 14:34:39;;;;;;;7.03;5.85;;;;;;;18.50;100.00;100738.53;6210507;28;20601;-75
2023/10/11 14:38:01;;;;;;;6.88;4.97;;;;;;;18.54;100.00;100719.88;6189015;28;20236;-73
2023/10/11 14:41:24;;;;;;;8.23;5.35;;;;;;;20.30;100.00;100731.59;6188220;28;20332;-73
2023/10/11 14:44:45;;;;;;;7.38;5.22;;;;;;;19.45;100.00;100748.22;6205067;28;20229;-75
2023/10/11 14:48:09;;;;;;;6.82;5.57;;;;;;;18.82;100.00;100724.41;6206185;28;20675;-73
2023/10/11 14:51:29;;;;;;;6.13;4.82;;;;;;;18.81;100.00;100716.41;6205679;28;20242;-75
2023/10/11 14:54:51;;;;;;;9.50;5.35;;;;;;;18.62;100.00;100728.81;6201049;28;20229;-74
2023/10/11 14:58:12;;;;;;;8.52;5.38;;;;;;;18.74;100.00;100734.59;6210845;28;20598;-76
2023/10/11 15:01:33;;;;;;;6.55;5.07;;;;;;;18.74;100.00;100726.41;6208215;28;20225;-73
2023/10/11 15:04:57;;;;;;;5.22;4.72;;;;;;;18.83;100.00;100723.38;6178774;28;20639;-73
2023/10/11 15:08:18;;;;;;;6.78;5.55;;;;;;;18.71;100.00;100721.34;6203589;28;20233;-73
2023/10/11 15:11:41;;;;;;;6.53;5.15;;;;;;;18.56;100.00;100715.06;6209951;28;21984;-73
2023/10/11 15:15:03;;;;;;;6.38;5.32;;;;;;;18.47;100.00;100711.59;6212474;28;20315;-73
2023/10/11 15:18:24;;;;;;;4.25;3.72;;;;;;;18.60;100.00;100705.44;6186242;28;20592;-74
2023/10/11 15:21:47;;;;;;;6.97;5.07;;;;;;;18.64;100.00;100699.41;6189008;28;20324;-74
2023/10/11 15:25:08;;;;;;;5.93;5.05;;;;;;;18.58;100.00;100705.66;6201654;28;20260;-74
2023/10/11 15:28:30;;;;;;;5.40;4.38;;;;;;;18.52;100.00;100720.06;6203160;28;20232;-73
2023/10/11 15:31:51;;;;;;;6.68;4.53;;;;;;;18.52;100.00;100722.81;6182830;28;20283;-74
2023/10/11 15:35:14;;;;;;;8.50;5.35;;;;;;;18.54;100.00;100701.63;6190847;28;20237;-73
2023/10/11 15:38:39;;;;;;;5.57;4.85;;;;;;;18.55;100.00;100708.75;6204019;28;20229;-73
2023/10/11 15:42:00;;;;;;;6.03;4.78;;;;;;;18.54;100.00;100700.75;6204025;28;20604;-73
2023/10/11 15:45:21;;;;;;;6.45;5.53;;;;;;;18.53;100.00;100708.09;6191868;28;20240;-72
2023/10/11 15:48:42;;;;;;;5.28;4.65;;;;;;;18.50;100.00;100710.38;6196228;28;20241;-72
2023/10/11 15:52:03;;;;;;;6.30;4.88;;;;;;;18.47;100.00;100708.00;6200308;28;20241;-73
2023/10/11 15:55:25;;;;;;;8.25;5.18;;;;;;;18.50;100.00;100707.66;6192159;28;20237;-73